Storm Events Database

Event Details

Event Hail
Magnitude 0.75 in.
State GEORGIA
County/Area MERIWETHER
WFO FFC
Begin Date 06/05/2007 13:30:00 EST-5
Begin Range 4
Begin Azimuth NW
Begin Location ST MARKS
Begin Lat/Lon 33.16/-84.88
End Date 06/05/2007 13:32:00 EST-5
Deaths Direct/Indirect 0/0 (fatality details below, when available...)
Injuries Direct/Indirect 0/0
Property Damage 0.00K
Crop Damage 0.00K
Episode Narrative After an extended period of dry conditions, a widespread thunderstorm event during the afternoon and early evening hours brought welcome rain to the area, but unfortunately a number of severe thunderstorms as well. The thunderstorms were fueled by a stationary front lying across central Georgia combined with a short wave in northwest flow aloft as a large trough developed across the eastern U.S. Most of the events were characterized by marginal severe thunderstorm wind and hail events.
Event Narrative A storm spotter observed penny-sized hail on Georgia Highway 54 along the Troup/Meriwether county line.


All events for this episode:

Location County/Zone St. Date Time T.Z. Type Mag Dth Inj PrD CrD
Totals: 0 0 750.00K 0.00K
DACULA GWINNETT CO. GA 06/05/2007 13:20 EST-5 Lightning 0 0 25.00K 0.00K
DACULA GWINNETT CO. GA 06/05/2007 13:22 EST-5 Lightning 0 0 250.00K 0.00K
HOGANSVILLE TROUP CO. GA 06/05/2007 13:25 EST-5 Thunderstorm Wind 39 kts. EG 0 0 1.00K 0.00K
ST MARKS MERIWETHER CO. GA 06/05/2007 13:30 EST-5 Hail 0.75 in. 0 0 0.00K 0.00K
HOGANSVILLE TROUP CO. GA 06/05/2007 13:30 EST-5 Hail 0.75 in. 0 0 0.00K 0.00K
SHADY DALE JASPER CO. GA 06/05/2007 13:40 EST-5 Thunderstorm Wind 50 kts. EG 0 0 3.00K 0.00K
MULBERRY GROVE HARRIS CO. GA 06/05/2007 14:00 EST-5 Hail 0.75 in. 0 0 0.00K 0.00K
ALPHARETTA FULTON CO. GA 06/05/2007 14:04 EST-5 Hail 0.75 in. 0 0 0.00K 0.00K
GRIFFIN SPALDING CO. GA 06/05/2007 14:10 EST-5 Lightning 0 0 1.00K 0.00K
MIAMI VLY PEACH CO. GA 06/05/2007 14:25 EST-5 Hail 0.75 in. 0 0 0.00K 0.00K
WARNER ROBINS HOUSTON CO. GA 06/05/2007 14:30 EST-5 Thunderstorm Wind 50 kts. EG 0 0 2.00K 0.00K
PERRY HOUSTON CO. GA 06/05/2007 14:35 EST-5 Hail 0.88 in. 0 0 0.00K 0.00K
HOG MTN GWINNETT CO. GA 06/05/2007 14:48 EST-5 Hail 0.75 in. 0 0 0.00K 0.00K
HOG MTN GWINNETT CO. GA 06/05/2007 14:48 EST-5 Thunderstorm Wind 43 kts. EG 0 0 1.00K 0.00K
MONTROSE LAURENS CO. GA 06/05/2007 15:02 EST-5 Hail 0.75 in. 0 0 0.00K 0.00K
SANDY SPGS FULTON CO. GA 06/05/2007 15:17 EST-5 Thunderstorm Wind 39 kts. EG 0 0 3.00K 0.00K
PERRY HOUSTON CO. GA 06/05/2007 15:20 EST-5 Hail 0.75 in. 0 0 0.00K 0.00K
COCHRAN BLECKLEY CO. GA 06/05/2007 15:20 EST-5 Hail 0.88 in. 0 0 0.00K 0.00K
HAWKINSVILLE PULASKI CO. GA 06/05/2007 15:29 EST-5 Thunderstorm Wind 50 kts. EG 0 0 10.00K 0.00K
DUDLEY LAURENS CO. GA 06/05/2007 15:30 EST-5 Hail 0.75 in. 0 0 0.00K 0.00K
DEXTER LAURENS CO. GA 06/05/2007 15:30 EST-5 Thunderstorm Wind 50 kts. EG 0 0 100.00K 0.00K
STONE MTN DE KALB CO. GA 06/05/2007 15:50 EST-5 Thunderstorm Wind 50 kts. EG 0 0 1.00K 0.00K
STONE MTN DE KALB CO. GA 06/05/2007 15:50 EST-5 Hail 0.75 in. 0 0 0.00K 0.00K
GRAYSON GWINNETT CO. GA 06/05/2007 16:00 EST-5 Lightning 0 0 100.00K 0.00K
CONYERS ROCKDALE CO. GA 06/05/2007 16:15 EST-5 Lightning 0 0 250.00K 0.00K
AMERICUS SUMTER CO. GA 06/05/2007 16:30 EST-5 Thunderstorm Wind 43 kts. EG 0 0 3.00K 0.00K
Totals: 0 0 750.00K 0.00K